Impacts METAR Board
IDs:

KORD - Chicago/O'Hare Intl, IL, US

Updated at: 2100 UTC 20 Jun 2019
Potential Impact None Slight Moderate High
Time 20/09Z 20/10Z 20/11Z 20/12Z 20/13Z 20/14Z 20/15Z 20/16Z 20/17Z 20/18Z 20/19Z 20/20Z 20/21Z
Temp58 58 59 59 59 60 60 61 61 62 65 68 69
Dewpt57 58 58 58 58 58 58 59 59 58 58 59 59
Altim29.59 29.59 29.61 29.65 29.65 29.66 29.68 29.69 29.71 29.74 29.76 29.77 29.78
VIS10 3 5 5 7 5 7 5 7 10 10 10 10
CIG5 4 4 5 6 6 5 6 8 10 16 37 41
CoverOVCOVCOVCOVCOVCOVCOVCOVCOVCOVCOVCOVCOVC
FltCatIFRLIFRLIFRIFRIFRIFRIFRIFRIFRMVFRMVFRVFRVFR
WX-RA+RA BR-DZ BR-RA BR--BR---DZ BR----------
WDir360360103503503601010360360101030
WSpd9 9 10 11 15 11 12 12 9 9 9 9 11
WGst-- -- -- -- -- -- -- -- -- -- -- -- --
Raw hourly METARs
KORD 200851Z 36009KT 10SM -RA OVC005 14/14 A2959 RMK AO2 SLP018 P0002 60011 T01440139 55007
KORD 200951Z 36009KT 3SM +RA BR OVC004 14/14 A2959 RMK AO2 RAE0855B16 SLP019 P0008 T01440144
KORD 201051Z 01010KT 5SM -DZ BR OVC004 15/14 A2961 RMK AO2 SLP027 RAE32DZB33 P0006 T01500144
KORD 201200Z 35011KT 5SM -RA BR OVC005 15/14 A2965 RMK AO2 CIG 004V008 P0000 T01500144
KORD 201251Z 35015KT 7SM OVC006 15/14 A2965 RMK AO2 RAE49 SLP040 VCSH E-S P0004 T01500144
KORD 201351Z 36011KT 5SM BR OVC006 16/14 A2966 RMK AO2 SLP043 T01560144
KORD 201451Z 01012KT 7SM OVC005 16/14 A2968 RMK AO2 RAB1359E11 SLP048 P0000 60004 T01560144 53009
KORD 201551Z 01012KT 5SM -DZ BR OVC006 16/15 A2969 RMK AO2 DZB19 SLP053 P0000 T01610150
KORD 201651Z 36009KT 7SM OVC008 16/15 A2971 RMK AO2 DZE03 SLP060 P0000 T01610150
KORD 201751Z 36009KT 10SM OVC010 17/14 A2974 RMK AO2 SLP071 60004 T01670144 10167 20150 53022
KORD 201859Z 01009KT 10SM OVC016 18/14 A2976 RMK AO2 T01830144
KORD 202001Z 01009KT 10SM SCT024 BKN037 OVC070 20/15 A2977 RMK AO2 T02000150
KORD 202051Z 03011KT 10SM SCT027 BKN041 OVC080 21/15 A2978 RMK AO2 SLP082 T02060150 51012



Page loaded:  21:28 UTC  |   02:28 PM Pacific  |   03:28 PM Mountain  |   04:28 PM Central  |   05:28 PM Eastern

 

ADVISORIES

FORECASTS

FORECASTS

OBSERVATIONS

USER TOOLS

ABOUT US